Time;durP1;ratioP1;P1;durP2;ratioP2;P2;SDS_P1;SDS_P2;PMS_P1;PMS_P2;Temp;Humidity;BMP_temperature;BMP_pressure;BME280_temperature;BME280_humidity;BME280_pressure;Samples;Min_cycle;Max_cycle;Signal;HPM_P1;HPM_P2
2021/12/13 00:01:22;;;;;;;36.30;19.27;;;8.90;99.90;;;;;;5057477;28;20278;-84
2021/12/13 00:03:51;;;;;;;29.23;18.37;;;8.90;99.90;;;;;;5039198;28;20168;-84
2021/12/13 00:06:31;;;;;;;34.63;18.80;;;8.90;99.90;;;;;;5039301;28;20191;-83
2021/12/13 00:09:00;;;;;;;31.23;18.57;;;8.90;99.90;;;;;;5039022;28;20187;-84
2021/12/13 00:11:32;;;;;;;36.03;18.57;;;8.90;99.90;;;;;;5056650;28;20676;-83
2021/12/13 00:14:30;;;;;;;34.63;19.23;;;8.90;99.90;;;;;;5056622;28;20215;-84
2021/12/13 00:17:09;;;;;;;38.20;18.87;;;8.90;99.90;;;;;;5056439;28;20183;-84
2021/12/13 00:19:50;;;;;;;31.93;17.23;;;8.90;99.90;;;;;;5056731;28;20167;-83
2021/12/13 00:22:26;;;;;;;33.93;17.93;;;8.90;99.90;;;;;;5056347;28;20192;-83
2021/12/13 00:24:53;;;;;;;27.83;17.83;;;8.90;99.90;;;;;;5022326;28;20195;-84
2021/12/13 00:27:24;;;;;;;33.53;17.87;;;8.90;99.90;;;;;;5055739;28;20605;-83
2021/12/13 00:29:59;;;;;;;37.80;17.17;;;8.90;99.90;;;;;;5038123;28;20212;-84
2021/12/13 00:32:58;;;;;;;28.20;17.83;;;8.90;99.90;;;;;;5056426;28;20192;-83
2021/12/13 00:35:31;;;;;;;28.80;15.80;;;8.90;99.90;;;;;;5038388;28;20245;-83
2021/12/13 00:38:03;;;;;;;33.23;17.70;;;8.90;99.90;;;;;;5018625;28;20184;-84
2021/12/13 00:40:40;;;;;;;27.87;16.67;;;8.90;99.90;;;;;;5018889;28;20517;-83
2021/12/13 00:43:09;;;;;;;30.93;16.93;;;8.90;99.90;;;;;;5036474;28;20652;-83
2021/12/13 00:45:47;;;;;;;29.50;15.23;;;8.90;99.90;;;;;;5019073;28;20208;-83
2021/12/13 00:48:14;;;;;;;28.53;15.57;;;8.90;99.90;;;;;;5038213;28;20601;-83
2021/12/13 00:50:46;;;;;;;24.70;15.03;;;8.90;99.90;;;;;;5056679;28;20260;-84
2021/12/13 00:53:17;;;;;;;30.27;15.90;;;8.90;99.90;;;;;;5038190;28;20176;-83
2021/12/13 00:55:44;;;;;;;23.00;14.67;;;8.90;99.90;;;;;;5056029;28;20578;-83
2021/12/13 00:58:19;;;;;;;33.10;14.97;;;8.90;99.90;;;;;;5055857;28;20184;-83
2021/12/13 01:00:56;;;;;;;25.07;14.70;;;8.90;99.90;;;;;;5038280;28;20266;-84
2021/12/13 01:03:46;;;;;;;21.93;14.03;;;8.90;99.90;;;;;;5056009;28;20167;-83
2021/12/13 01:06:31;;;;;;;24.63;14.27;;;8.90;99.90;;;;;;5037815;28;20180;-83
2021/12/13 01:09:15;;;;;;;27.70;13.80;;;8.80;99.90;;;;;;5059143;28;20197;-83
2021/12/13 01:11:44;;;;;;;20.83;13.03;;;8.80;99.90;;;;;;5043134;28;20190;-84
2021/12/13 01:14:28;;;;;;;22.77;13.73;;;8.80;99.90;;;;;;5043148;28;20234;-83
2021/12/13 01:17:03;;;;;;;21.73;13.53;;;8.80;99.90;;;;;;5062149;28;20237;-83
2021/12/13 01:19:49;;;;;;;21.43;13.43;;;8.80;99.90;;;;;;5042464;28;20180;-83
2021/12/13 01:22:51;;;;;;;22.30;12.40;;;8.80;99.90;;;;;;5062026;28;20222;-83
2021/12/13 01:28:18;;;;;;;21.97;12.37;;;8.80;99.90;;;;;;5031014;28;20184;-84
2021/12/13 01:30:53;;;;;;;18.43;12.13;;;8.80;99.90;;;;;;5062681;28;20156;-83
2021/12/13 01:33:20;;;;;;;18.87;12.07;;;8.70;99.90;;;;;;5062853;28;20159;-83
2021/12/13 01:35:49;;;;;;;19.73;12.63;;;8.70;99.90;;;;;;5062777;28;20665;-83
2021/12/13 01:38:19;;;;;;;20.23;12.53;;;8.70;99.90;;;;;;5062360;28;20180;-82
2021/12/13 01:40:51;;;;;;;18.13;12.13;;;8.70;99.90;;;;;;5063519;28;20211;-83
2021/12/13 01:43:30;;;;;;;19.57;11.70;;;8.70;99.90;;;;;;5063086;28;20160;-83
2021/12/13 01:45:57;;;;;;;20.70;11.20;;;8.70;99.90;;;;;;5062721;28;20257;-83
2021/12/13 01:48:30;;;;;;;18.67;12.13;;;8.70;99.90;;;;;;5045305;28;20206;-83
2021/12/13 01:51:05;;;;;;;19.60;11.73;;;8.70;99.90;;;;;;5052018;28;20183;-84
2021/12/13 01:53:38;;;;;;;19.27;11.60;;;8.70;99.90;;;;;;5055525;28;20214;-83
2021/12/13 01:56:22;;;;;;;17.57;11.13;;;8.60;99.90;;;;;;5050018;28;20257;-83
2021/12/13 01:58:49;;;;;;;18.50;11.10;;;8.60;99.90;;;;;;5036980;28;20211;-83
2021/12/13 02:01:21;;;;;;;18.10;12.23;;;8.60;99.90;;;;;;5037008;28;20221;-83
2021/12/13 02:04:00;;;;;;;17.87;11.67;;;8.60;99.90;;;;;;5055336;28;20677;-84
2021/12/13 02:06:45;;;;;;;18.17;11.50;;;8.60;99.90;;;;;;5036981;28;20196;-84
2021/12/13 02:09:18;;;;;;;17.07;11.50;;;8.60;99.90;;;;;;5054220;28;20552;-84
2021/12/13 02:11:46;;;;;;;20.47;10.97;;;8.50;99.90;;;;;;5036826;28;20312;-84
2021/12/13 02:14:17;;;;;;;18.03;11.07;;;8.50;99.90;;;;;;5054431;28;20639;-84
2021/12/13 02:17:11;;;;;;;17.40;10.50;;;8.50;99.90;;;;;;5036927;28;20211;-84
2021/12/13 02:19:57;;;;;;;18.77;11.37;;;8.50;99.90;;;;;;5036373;28;20260;-84
2021/12/13 02:22:39;;;;;;;19.23;10.67;;;8.50;99.90;;;;;;5036460;28;20235;-84
2021/12/13 02:25:15;;;;;;;16.17;9.97;;;8.50;99.90;;;;;;5054443;28;20195;-84
2021/12/13 02:28:05;;;;;;;17.00;10.07;;;8.50;99.90;;;;;;5053927;28;20152;-84
2021/12/13 02:30:43;;;;;;;12.07;8.77;;;8.50;99.90;;;;;;5036060;28;20179;-84
2021/12/13 02:33:13;;;;;;;15.67;10.17;;;8.40;99.90;;;;;;5054289;28;20172;-84
2021/12/13 02:35:43;;;;;;;14.83;9.87;;;8.50;99.90;;;;;;5036241;28;20203;-84
2021/12/13 02:38:12;;;;;;;16.07;9.90;;;8.50;99.90;;;;;;5036220;28;20203;-83
2021/12/13 02:40:38;;;;;;;13.70;9.17;;;8.40;99.90;;;;;;5036238;28;20266;-84
2021/12/13 02:43:07;;;;;;;13.20;9.20;;;8.40;99.90;;;;;;5054014;28;20267;-83
2021/12/13 02:45:42;;;;;;;13.23;8.77;;;8.40;99.90;;;;;;5036080;28;20200;-84
2021/12/13 02:48:49;;;;;;;13.57;9.20;;;8.30;99.90;;;;;;5054242;28;20610;-84
2021/12/13 02:51:21;;;;;;;11.70;8.87;;;8.30;99.90;;;;;;5036314;28;20254;-83
2021/12/13 02:53:49;;;;;;;11.60;9.00;;;8.30;99.90;;;;;;5053847;28;20184;-83
2021/12/13 02:56:21;;;;;;;11.93;8.60;;;8.30;99.90;;;;;;5053539;28;20190;-83
2021/12/13 02:58:49;;;;;;;11.50;8.70;;;8.20;99.90;;;;;;5054248;28;20227;-84
2021/12/13 03:01:28;;;;;;;15.23;9.00;;;8.20;99.90;;;;;;5035978;28;20211;-83
2021/12/13 03:03:56;;;;;;;11.13;9.23;;;8.20;99.90;;;;;;5036198;28;20203;-84
2021/12/13 03:06:29;;;;;;;12.17;8.87;;;8.20;99.90;;;;;;5054223;28;20624;-83
2021/12/13 03:09:01;;;;;;;15.77;8.63;;;8.20;99.90;;;;;;5035662;28;20183;-84
2021/12/13 03:11:32;;;;;;;12.43;9.03;;;8.20;99.90;;;;;;5053991;28;20270;-84
2021/12/13 03:14:04;;;;;;;14.70;8.63;;;8.10;99.90;;;;;;5053613;28;20224;-83
2021/12/13 03:16:37;;;;;;;13.20;9.10;;;8.20;99.90;;;;;;5035910;28;20180;-84
2021/12/13 03:19:10;;;;;;;12.17;8.23;;;8.10;99.90;;;;;;5035630;28;20187;-84
2021/12/13 03:22:14;;;;;;;11.13;8.17;;;8.10;99.90;;;;;;5036140;28;20207;-83
2021/12/13 03:25:01;;;;;;;10.40;8.10;;;8.10;99.90;;;;;;4975750;28;20209;-84
2021/12/13 03:28:00;;;;;;;11.77;8.07;;;8.10;99.90;;;;;;5050457;28;20178;-83
2021/12/13 03:30:32;;;;;;;12.57;8.10;;;8.10;99.90;;;;;;5035160;28;20169;-84
2021/12/13 03:33:13;;;;;;;11.13;8.10;;;8.10;99.90;;;;;;5032559;28;20195;-84
2021/12/13 03:35:45;;;;;;;11.97;8.07;;;8.10;99.90;;;;;;5016141;28;20216;-83
2021/12/13 03:38:15;;;;;;;9.27;7.20;;;8.10;99.90;;;;;;5039079;28;20182;-83
2021/12/13 03:40:40;;;;;;;11.77;8.57;;;8.10;99.90;;;;;;5053367;28;20179;-83
2021/12/13 03:43:14;;;;;;;13.57;8.17;;;8.10;99.90;;;;;;5053362;28;20229;-84
2021/12/13 03:45:50;;;;;;;11.00;8.13;;;8.00;99.90;;;;;;5035657;28;20599;-84
2021/12/13 03:48:19;;;;;;;12.37;8.13;;;8.00;99.90;;;;;;5053220;28;20186;-83
2021/12/13 03:50:52;;;;;;;10.60;7.60;;;8.00;99.90;;;;;;5035399;28;20232;-83
2021/12/13 03:53:25;;;;;;;11.93;7.53;;;8.00;99.90;;;;;;5053069;28;20174;-83
2021/12/13 03:56:01;;;;;;;9.73;7.80;;;8.00;99.90;;;;;;5035416;28;20214;-83
2021/12/13 03:58:32;;;;;;;10.73;7.23;;;8.00;99.90;;;;;;5052530;28;20199;-83
2021/12/13 04:01:30;;;;;;;11.13;7.10;;;8.00;99.90;;;;;;5053040;28;20206;-84
2021/12/13 04:04:00;;;;;;;9.90;7.90;;;8.00;99.90;;;;;;5033947;28;20318;-83
2021/12/13 04:06:26;;;;;;;9.60;7.50;;;8.00;99.90;;;;;;5056741;28;20160;-83
2021/12/13 04:08:55;;;;;;;10.13;7.40;;;8.00;99.90;;;;;;5038858;28;20187;-83
2021/12/13 04:11:22;;;;;;;10.30;7.57;;;8.00;99.90;;;;;;5038671;28;20278;-83
2021/12/13 04:14:07;;;;;;;8.97;7.13;;;8.00;99.90;;;;;;5038586;28;20538;-83
2021/12/13 04:16:49;;;;;;;12.03;7.33;;;8.00;99.90;;;;;;5056584;28;20160;-83
2021/12/13 04:19:21;;;;;;;9.53;6.87;;;8.00;99.90;;;;;;5056028;28;20199;-83
2021/12/13 04:21:52;;;;;;;11.17;6.97;;;8.00;99.90;;;;;;5056397;28;20203;-84
2021/12/13 04:24:30;;;;;;;9.73;7.33;;;8.00;99.90;;;;;;5055179;28;20200;-83
2021/12/13 04:27:06;;;;;;;12.27;6.80;;;8.00;99.90;;;;;;5038706;28;20199;-83
2021/12/13 04:29:39;;;;;;;13.43;7.60;;;8.00;99.90;;;;;;5038166;28;20175;-83
2021/12/13 04:32:36;;;;;;;11.47;6.67;;;8.00;99.90;;;;;;5038576;28;20203;-83
2021/12/13 04:35:07;;;;;;;10.00;6.57;;;8.00;99.90;;;;;;5038233;28;20256;-83
2021/12/13 04:37:38;;;;;;;11.70;7.40;;;8.00;99.90;;;;;;5038372;28;20172;-83
2021/12/13 04:40:35;;;;;;;8.43;6.37;;;8.00;99.90;;;;;;5055943;28;20175;-83
2021/12/13 04:43:11;;;;;;;10.87;6.77;;;8.00;99.90;;;;;;5034549;28;20669;-83
2021/12/13 04:45:41;;;;;;;7.17;5.93;;;8.00;99.90;;;;;;5038151;28;20207;-83
2021/12/13 04:48:20;;;;;;;12.13;7.10;;;7.90;99.90;;;;;;5055391;28;20600;-83
2021/12/13 04:50:51;;;;;;;8.03;6.33;;;7.90;99.90;;;;;;5037951;28;20183;-83
2021/12/13 04:53:40;;;;;;;10.37;6.60;;;7.90;99.90;;;;;;5056171;28;20544;-83
2021/12/13 04:56:12;;;;;;;9.97;6.57;;;7.90;99.90;;;;;;5055558;28;20188;-83
2021/12/13 04:58:40;;;;;;;9.43;6.97;;;7.90;99.90;;;;;;5037521;28;20176;-83
2021/12/13 05:01:09;;;;;;;10.83;6.90;;;7.90;99.90;;;;;;5037456;28;20217;-83
2021/12/13 05:03:39;;;;;;;11.47;6.70;;;7.90;99.90;;;;;;5055675;28;20267;-83
2021/12/13 05:06:09;;;;;;;11.90;7.33;;;8.00;99.90;;;;;;5037825;28;20204;-83
2021/12/13 05:08:37;;;;;;;10.23;7.07;;;8.00;99.90;;;;;;5044452;28;20222;-83
2021/12/13 05:11:06;;;;;;;11.23;7.13;;;7.90;99.90;;;;;;5035730;28;20216;-83
2021/12/13 05:13:37;;;;;;;12.23;7.97;;;7.90;99.90;;;;;;5035350;28;20172;-83
2021/12/13 05:16:09;;;;;;;9.57;7.10;;;7.90;99.90;;;;;;5049423;23;20231;-80
2021/12/13 05:18:43;;;;;;;15.27;7.87;;;7.90;99.90;;;;;;5061484;28;20174;-81
2021/12/13 05:21:13;;;;;;;10.10;7.23;;;8.00;99.90;;;;;;5043835;28;20200;-80
2021/12/13 05:23:48;;;;;;;12.67;7.20;;;8.00;99.90;;;;;;5044038;28;20581;-80
2021/12/13 05:26:36;;;;;;;10.83;7.63;;;8.00;99.90;;;;;;5062602;28;20191;-80
2021/12/13 05:29:06;;;;;;;10.70;7.43;;;8.00;99.90;;;;;;5044925;28;20715;-80
2021/12/13 05:31:33;;;;;;;13.67;7.43;;;8.00;99.90;;;;;;5045354;28;20266;-81
2021/12/13 05:34:05;;;;;;;11.33;7.60;;;8.00;99.90;;;;;;5062334;28;20661;-80
2021/12/13 05:36:35;;;;;;;11.17;7.97;;;8.00;99.90;;;;;;5063129;28;20191;-80
2021/12/13 05:39:04;;;;;;;11.40;7.80;;;7.90;99.90;;;;;;5043491;28;20191;-80
2021/12/13 05:41:30;;;;;;;10.70;7.37;;;8.00;99.90;;;;;;5063144;28;20203;-81
2021/12/13 05:44:00;;;;;;;10.17;7.87;;;8.00;99.90;;;;;;5045664;28;20180;-80
2021/12/13 05:46:42;;;;;;;14.87;9.03;;;8.00;99.90;;;;;;5063029;28;20219;-80
2021/12/13 05:49:22;;;;;;;11.80;7.50;;;8.00;99.90;;;;;;5062877;28;20188;-80
2021/12/13 05:51:52;;;;;;;13.33;7.40;;;8.00;99.90;;;;;;5046454;28;20185;-81
2021/12/13 05:54:28;;;;;;;16.40;8.37;;;8.00;99.90;;;;;;5064905;28;20588;-79
2021/12/13 05:57:06;;;;;;;14.80;9.10;;;8.00;99.90;;;;;;5062758;28;20211;-81
2021/12/13 05:59:36;;;;;;;13.57;9.37;;;8.00;99.90;;;;;;5065218;28;20191;-80
2021/12/13 06:02:11;;;;;;;12.93;8.90;;;8.00;99.90;;;;;;5064040;28;20207;-81
2021/12/13 06:05:04;;;;;;;16.93;9.53;;;8.00;99.90;;;;;;5064733;28;20641;-81
2021/12/13 06:07:40;;;;;;;12.47;8.27;;;8.00;99.90;;;;;;5063640;28;20552;-81
2021/12/13 06:10:13;;;;;;;15.03;8.87;;;8.00;99.90;;;;;;5063526;28;20707;-81
2021/12/13 06:13:01;;;;;;;17.43;9.30;;;8.00;99.90;;;;;;5045003;28;20193;-80
2021/12/13 06:15:33;;;;;;;13.10;8.50;;;8.00;99.90;;;;;;5062624;28;20225;-79
2021/12/13 06:17:59;;;;;;;13.60;9.13;;;8.00;99.90;;;;;;5062641;28;20270;-78
2021/12/13 06:20:43;;;;;;;16.43;8.40;;;8.00;99.90;;;;;;5060186;28;20199;-79
2021/12/13 06:23:13;;;;;;;13.90;8.40;;;8.00;99.90;;;;;;5061348;28;20179;-78
2021/12/13 06:25:42;;;;;;;12.60;8.67;;;8.00;99.90;;;;;;5061252;28;20207;-79
2021/12/13 06:28:27;;;;;;;14.27;8.80;;;8.00;99.90;;;;;;5044422;28;20181;-79
2021/12/13 06:31:15;;;;;;;13.33;8.50;;;8.00;99.90;;;;;;5059520;28;20172;-78
2021/12/13 06:33:54;;;;;;;13.03;8.07;;;8.00;99.90;;;;;;5061043;28;20183;-79
2021/12/13 06:36:35;;;;;;;13.93;7.73;;;8.00;99.90;;;;;;5042792;28;20231;-78
2021/12/13 06:39:10;;;;;;;14.27;8.47;;;8.00;99.90;;;;;;5044172;28;20182;-79
2021/12/13 06:41:43;;;;;;;14.10;9.37;;;8.00;99.90;;;;;;5064390;28;20214;-79
2021/12/13 06:44:24;;;;;;;12.13;8.03;;;8.00;99.90;;;;;;5064659;28;20250;-80
2021/12/13 06:47:05;;;;;;;22.30;8.23;;;8.00;99.90;;;;;;5045558;28;20200;-80
2021/12/13 06:49:48;;;;;;;13.93;8.27;;;7.90;99.90;;;;;;5044956;28;20176;-79
2021/12/13 06:52:13;;;;;;;14.87;8.20;;;7.90;99.90;;;;;;5043896;28;20259;-80
2021/12/13 06:54:49;;;;;;;13.13;9.00;;;8.00;99.90;;;;;;5053721;28;20225;-79
2021/12/13 06:57:21;;;;;;;17.10;8.60;;;7.90;99.90;;;;;;5071733;28;20230;-79
2021/12/13 06:59:55;;;;;;;12.33;9.03;;;7.90;99.90;;;;;;5041761;28;20187;-79
2021/12/13 07:02:25;;;;;;;13.60;9.70;;;7.90;99.90;;;;;;5058126;28;20203;-79
2021/12/13 07:05:05;;;;;;;17.70;10.83;;;8.00;99.90;;;;;;5057181;28;20286;-78
2021/12/13 07:07:47;;;;;;;12.53;9.77;;;8.00;99.90;;;;;;5056790;28;20250;-78
2021/12/13 07:10:18;;;;;;;18.27;9.30;;;7.90;99.90;;;;;;5057387;28;20186;-79
2021/12/13 07:12:57;;;;;;;13.33;9.53;;;8.00;99.90;;;;;;5055961;28;20246;-78
2021/12/13 07:15:25;;;;;;;16.27;9.47;;;8.00;99.90;;;;;;5038430;28;20221;-79
2021/12/13 07:18:01;;;;;;;14.03;9.47;;;8.00;99.90;;;;;;5056827;28;20202;-78
2021/12/13 07:20:40;;;;;;;19.57;8.43;;;8.00;99.90;;;;;;5039276;28;20224;-78
2021/12/13 07:23:05;;;;;;;13.10;8.93;;;8.00;99.90;;;;;;5057354;28;20191;-78
2021/12/13 07:25:37;;;;;;;16.57;9.03;;;8.00;99.90;;;;;;5056507;28;20214;-79
2021/12/13 07:28:05;;;;;;;17.90;9.57;;;8.00;99.90;;;;;;5056803;28;20301;-79
2021/12/13 07:30:33;;;;;;;15.43;9.40;;;8.00;99.90;;;;;;5038264;28;20219;-77
2021/12/13 07:33:03;;;;;;;17.77;8.63;;;8.00;99.90;;;;;;5038914;28;20179;-79
2021/12/13 07:35:29;;;;;;;14.07;9.30;;;8.00;99.90;;;;;;5056919;28;20234;-78
2021/12/13 07:38:09;;;;;;;18.47;9.23;;;8.00;99.90;;;;;;5059269;28;20183;-78
2021/12/13 07:40:48;;;;;;;18.80;9.90;;;8.00;99.90;;;;;;5060930;28;20522;-79
2021/12/13 07:43:38;;;;;;;14.33;9.07;;;8.00;99.90;;;;;;5060589;28;20180;-78
2021/12/13 07:46:19;;;;;;;17.83;9.60;;;8.00;99.90;;;;;;5042945;28;20195;-79
2021/12/13 07:48:45;;;;;;;13.53;9.20;;;8.00;99.90;;;;;;5061460;28;20179;-79
2021/12/13 07:51:15;;;;;;;13.63;9.53;;;8.00;99.90;;;;;;5061601;28;20176;-79
2021/12/13 07:53:52;;;;;;;17.30;9.57;;;8.00;99.90;;;;;;5061661;28;20168;-79
2021/12/13 07:56:28;;;;;;;15.53;10.10;;;8.00;99.90;;;;;;5044025;28;20206;-79
2021/12/13 07:59:23;;;;;;;16.90;11.13;;;8.00;99.90;;;;;;5043246;28;20844;-78
2021/12/13 08:02:08;;;;;;;22.83;10.97;;;8.00;99.90;;;;;;5062082;28;20203;-78
2021/12/13 08:04:51;;;;;;;21.07;10.90;;;8.00;99.90;;;;;;5043888;28;20637;-78
2021/12/13 08:07:25;;;;;;;15.07;10.37;;;8.00;99.90;;;;;;5062227;28;20274;-78
2021/12/13 08:10:04;;;;;;;17.67;10.40;;;8.00;99.90;;;;;;5062530;28;20170;-79
2021/12/13 08:12:46;;;;;;;16.57;10.87;;;8.00;99.90;;;;;;5061450;28;20167;-79
2021/12/13 08:15:17;;;;;;;20.17;11.13;;;8.00;99.90;;;;;;5059638;28;20223;-79
2021/12/13 08:17:58;;;;;;;17.00;11.20;;;8.00;99.90;;;;;;5061036;28;20565;-79
2021/12/13 08:20:45;;;;;;;18.23;11.13;;;8.00;99.90;;;;;;5059965;28;20167;-78
2021/12/13 08:23:18;;;;;;;18.57;10.47;;;8.00;99.90;;;;;;5060124;28;20267;-78
2021/12/13 08:25:46;;;;;;;17.10;10.17;;;8.00;99.90;;;;;;5042203;28;20207;-78
2021/12/13 08:28:17;;;;;;;16.90;9.47;;;8.00;99.90;;;;;;5060661;28;20190;-79
2021/12/13 08:30:50;;;;;;;19.17;9.70;;;8.10;99.90;;;;;;5042481;28;20221;-79
2021/12/13 08:33:20;;;;;;;15.50;9.60;;;8.10;99.90;;;;;;5060958;28;20184;-78
2021/12/13 08:35:51;;;;;;;14.43;9.17;;;8.10;99.90;;;;;;5060364;28;20196;-79
2021/12/13 08:38:28;;;;;;;17.23;10.27;;;8.10;99.90;;;;;;5060381;28;20535;-79
2021/12/13 08:40:54;;;;;;;12.97;8.47;;;8.10;99.90;;;;;;5058750;28;20174;-79
2021/12/13 08:43:39;;;;;;;17.03;8.27;;;8.10;99.90;;;;;;5060439;28;20233;-78
2021/12/13 08:46:05;;;;;;;11.83;8.73;;;8.10;99.90;;;;;;5060804;28;20243;-79
2021/12/13 08:48:47;;;;;;;17.30;8.50;;;8.20;99.90;;;;;;5042664;28;20209;-79
2021/12/13 08:51:19;;;;;;;16.13;8.67;;;8.10;99.90;;;;;;5060731;28;20652;-80
2021/12/13 08:53:56;;;;;;;15.93;8.53;;;8.10;99.90;;;;;;5061466;28;20622;-80
2021/12/13 08:56:23;;;;;;;14.37;8.43;;;8.20;99.90;;;;;;5043261;28;20574;-80
2021/12/13 08:58:59;;;;;;;15.87;9.30;;;8.20;99.90;;;;;;5062453;28;20176;-79
2021/12/13 09:01:28;;;;;;;18.17;9.10;;;8.20;99.90;;;;;;5044034;28;20199;-79
2021/12/13 09:03:54;;;;;;;15.27;9.07;;;8.20;99.90;;;;;;5044739;28;20183;-79
2021/12/13 09:06:23;;;;;;;15.13;9.33;;;8.20;99.90;;;;;;5062646;28;20202;-79
2021/12/13 09:09:14;;;;;;;16.97;9.77;;;8.20;99.90;;;;;;5062932;28;20198;-79
2021/12/13 09:11:45;;;;;;;17.17;9.00;;;8.20;99.90;;;;;;5045071;28;20259;-80
2021/12/13 09:14:21;;;;;;;14.13;9.40;;;8.20;99.90;;;;;;5064132;28;20171;-80
2021/12/13 09:17:06;;;;;;;16.37;9.67;;;8.20;99.90;;;;;;5063139;28;20222;-80
2021/12/13 09:19:40;;;;;;;15.33;9.40;;;8.30;99.90;;;;;;5044652;28;20267;-79
2021/12/13 09:22:30;;;;;;;15.90;9.30;;;8.30;99.90;;;;;;5062694;28;20507;-79
2021/12/13 09:25:11;;;;;;;16.00;10.07;;;8.30;99.90;;;;;;5062833;28;20642;-79
2021/12/13 09:27:54;;;;;;;15.37;9.33;;;8.30;99.90;;;;;;5044356;28;20186;-80
2021/12/13 09:30:38;;;;;;;14.20;9.37;;;8.30;99.90;;;;;;5063028;28;20222;-79
2021/12/13 09:33:11;;;;;;;17.40;9.67;;;8.30;99.90;;;;;;5045244;28;20171;-79
2021/12/13 09:36:01;;;;;;;17.07;10.07;;;8.30;99.90;;;;;;5063297;28;20200;-79
2021/12/13 09:38:50;;;;;;;22.60;10.80;;;8.30;99.90;;;;;;5025544;28;20290;-79
2021/12/13 09:41:46;;;;;;;18.87;10.50;;;8.40;99.90;;;;;;5064958;28;20233;-79
2021/12/13 09:44:11;;;;;;;18.17;11.67;;;8.40;99.90;;;;;;5064195;28;20153;-80
2021/12/13 09:46:49;;;;;;;18.97;10.83;;;8.40;99.90;;;;;;5063749;28;20294;-80
2021/12/13 09:49:29;;;;;;;21.33;11.63;;;8.40;99.90;;;;;;5063232;28;20172;-79
2021/12/13 09:52:27;;;;;;;16.67;10.80;;;8.40;99.90;;;;;;5059610;28;20167;-78
2021/12/13 09:54:59;;;;;;;15.03;10.67;;;8.40;99.90;;;;;;5059573;28;20171;-79
2021/12/13 09:57:33;;;;;;;14.27;10.50;;;8.40;99.90;;;;;;5058991;28;20584;-79
2021/12/13 10:00:00;;;;;;;15.60;11.07;;;8.50;99.90;;;;;;5040953;28;20684;-79
2021/12/13 10:02:31;;;;;;;18.83;10.77;;;8.50;99.90;;;;;;5058771;28;20213;-79
2021/12/13 10:04:58;;;;;;;17.57;11.03;;;8.50;99.90;;;;;;5059959;28;20164;-79
2021/12/13 10:07:28;;;;;;;17.80;10.77;;;8.50;99.90;;;;;;5059442;28;20291;-79
2021/12/13 10:10:17;;;;;;;17.83;10.37;;;8.50;99.90;;;;;;5059890;28;20164;-79
2021/12/13 10:12:48;;;;;;;16.53;10.00;;;8.50;99.90;;;;;;5060034;28;20164;-79
2021/12/13 10:15:22;;;;;;;16.10;9.83;;;8.60;99.90;;;;;;5060085;28;20171;-79
2021/12/13 10:17:50;;;;;;;12.93;9.43;;;8.60;99.90;;;;;;5042592;28;20261;-78
2021/12/13 10:20:22;;;;;;;13.63;9.40;;;8.60;99.90;;;;;;5060037;28;20208;-79
2021/12/13 10:22:48;;;;;;;16.33;9.67;;;8.60;99.90;;;;;;5042453;28;20561;-79
2021/12/13 10:25:27;;;;;;;15.83;9.57;;;8.60;99.90;;;;;;5060398;28;20183;-79
2021/12/13 10:27:54;;;;;;;15.93;10.27;;;8.70;99.90;;;;;;5039884;28;20182;-79
2021/12/13 10:30:25;;;;;;;14.27;10.10;;;8.70;99.90;;;;;;5038896;28;20180;-79
2021/12/13 10:32:53;;;;;;;19.07;10.07;;;8.70;99.90;;;;;;5039519;28;20183;-79
2021/12/13 10:35:26;;;;;;;15.77;10.53;;;8.70;99.90;;;;;;5039897;28;20186;-79
2021/12/13 10:37:56;;;;;;;18.73;10.70;;;8.80;99.90;;;;;;5058242;28;20190;-80
2021/12/13 10:40:27;;;;;;;14.07;9.93;;;8.80;99.90;;;;;;5057983;28;20207;-79
2021/12/13 10:42:58;;;;;;;16.87;9.93;;;8.80;99.90;;;;;;5040523;28;20684;-79
2021/12/13 10:45:35;;;;;;;16.20;9.83;;;8.80;99.90;;;;;;5057343;28;20167;-79
2021/12/13 10:48:05;;;;;;;13.47;9.03;;;8.80;99.90;;;;;;5056292;28;20164;-81
2021/12/13 10:50:45;;;;;;;14.63;9.77;;;8.80;99.90;;;;;;5037680;28;20203;-80
2021/12/13 10:53:15;;;;;;;15.00;9.37;;;8.80;99.90;;;;;;5056783;28;20167;-81
2021/12/13 10:55:48;;;;;;;16.47;8.77;;;8.90;99.90;;;;;;5056492;28;20257;-79
2021/12/13 10:58:17;;;;;;;11.63;7.83;;;8.90;99.90;;;;;;5038798;28;20179;-80
2021/12/13 11:00:48;;;;;;;9.97;7.37;;;8.90;99.90;;;;;;5038510;28;20176;-81
2021/12/13 11:03:18;;;;;;;13.57;7.67;;;8.80;99.90;;;;;;5056617;28;20651;-80
2021/12/13 11:05:45;;;;;;;12.73;6.83;;;8.90;99.90;;;;;;5056174;28;20249;-80
2021/12/13 11:08:13;;;;;;;10.50;6.27;;;8.90;99.90;;;;;;5055871;28;20184;-81
2021/12/13 11:10:45;;;;;;;12.53;6.90;;;8.90;99.90;;;;;;5056207;28;20176;-80
2021/12/13 11:13:12;;;;;;;11.00;6.47;;;8.90;99.90;;;;;;5056056;28;20188;-79
2021/12/13 11:18:30;;;;;;;10.30;5.73;;;8.90;99.90;;;;;;5096072;28;20262;-96
2021/12/13 11:21:01;;;;;;;7.13;5.50;;;8.90;99.90;;;;;;5075154;23;20257;-82
2021/12/13 11:23:27;;;;;;;9.27;4.90;;;8.90;99.90;;;;;;5056455;28;20179;-82
2021/12/13 11:25:59;;;;;;;8.27;5.30;;;9.00;99.90;;;;;;5074244;28;20175;-82
2021/12/13 11:28:29;;;;;;;6.50;4.73;;;9.00;99.90;;;;;;5074430;28;20179;-83
2021/12/13 11:30:56;;;;;;;8.27;5.30;;;9.10;99.90;;;;;;5058346;28;20561;-82
2021/12/13 11:33:37;;;;;;;7.50;4.97;;;9.10;99.90;;;;;;5060362;28;20224;-82
2021/12/13 11:36:21;;;;;;;6.67;4.33;;;9.10;99.90;;;;;;5057357;28;20256;-82
2021/12/13 11:39:24;;;;;;;6.50;4.53;;;9.10;99.90;;;;;;5074516;28;20192;-83
2021/12/13 11:41:53;;;;;;;8.23;4.53;;;9.20;99.90;;;;;;5074141;28;20198;-83
2021/12/13 11:44:36;;;;;;;6.77;4.33;;;9.20;99.90;;;;;;5056217;28;20185;-83
2021/12/13 11:47:28;;;;;;;6.00;4.47;;;9.20;99.90;;;;;;5056188;28;20206;-83
2021/12/13 11:50:10;;;;;;;5.97;4.47;;;9.20;99.90;;;;;;5056138;28;20221;-82
2021/12/13 11:53:03;;;;;;;4.53;3.80;;;9.30;99.90;;;;;;5055914;28;20190;-82
2021/12/13 11:55:59;;;;;;;6.37;4.00;;;9.30;99.90;;;;;;5074209;28;20187;-83
2021/12/13 11:59:04;;;;;;;5.17;3.67;;;9.30;99.90;;;;;;5056166;28;20179;-83
2021/12/13 12:02:00;;;;;;;5.47;3.60;;;9.30;99.90;;;;;;5063218;28;20211;-83
2021/12/13 12:05:04;;;;;;;4.37;3.57;;;9.40;99.90;;;;;;5057238;28;20175;-82
2021/12/13 12:08:08;;;;;;;5.40;3.73;;;9.40;99.90;;;;;;5074364;28;20547;-82
2021/12/13 12:10:58;;;;;;;5.03;3.73;;;9.40;99.90;;;;;;5074152;28;20178;-82
2021/12/13 12:13:39;;;;;;;4.80;3.77;;;9.50;99.90;;;;;;5074152;28;20176;-81
2021/12/13 12:16:06;;;;;;;4.47;2.73;;;9.50;99.90;;;;;;5074435;28;20258;-81
2021/12/13 12:18:35;;;;;;;3.43;2.77;;;9.50;99.90;;;;;;5073899;28;20623;-81
2021/12/13 12:21:38;;;;;;;4.07;2.90;;;9.60;99.90;;;;;;5055561;28;20247;-81
2021/12/13 12:24:14;;;;;;;5.10;2.80;;;9.60;99.90;;;;;;5057144;28;20266;-81
2021/12/13 12:26:41;;;;;;;3.33;2.40;;;9.60;99.90;;;;;;5060140;28;20244;-81
2021/12/13 12:29:14;;;;;;;6.80;2.77;;;9.60;99.90;;;;;;5060418;28;20194;-81
2021/12/13 12:31:44;;;;;;;3.10;2.40;;;9.60;99.90;;;;;;5060027;28;20198;-81
2021/12/13 12:34:11;;;;;;;2.80;2.30;;;9.60;99.90;;;;;;5077731;28;20274;-81
2021/12/13 12:36:42;;;;;;;3.07;2.30;;;9.70;99.90;;;;;;5077512;28;20203;-81
2021/12/13 12:39:35;;;;;;;2.57;1.93;;;9.70;99.90;;;;;;5059453;28;20289;-81
2021/12/13 12:42:31;;;;;;;1.80;1.63;;;9.70;99.90;;;;;;5059318;28;20209;-81
2021/12/13 12:44:56;;;;;;;1.83;1.57;;;9.70;99.90;;;;;;5077183;28;20171;-80
2021/12/13 12:47:34;;;;;;;1.90;1.60;;;9.70;99.90;;;;;;5059230;28;20199;-81
2021/12/13 12:50:28;;;;;;;4.20;1.47;;;9.70;99.90;;;;;;5076862;28;20554;-81
2021/12/13 12:53:00;;;;;;;2.80;1.60;;;9.70;99.90;;;;;;5059183;28;20179;-81
2021/12/13 12:55:34;;;;;;;2.53;1.20;;;9.70;99.90;;;;;;5059183;28;20212;-81
2021/12/13 12:58:20;;;;;;;1.97;1.30;;;9.70;99.90;;;;;;5076756;28;20206;-81
2021/12/13 13:00:47;;;;;;;3.97;1.23;;;9.70;99.90;;;;;;5076791;28;20175;-81
2021/12/13 13:03:27;;;;;;;1.00;0.80;;;9.70;99.90;;;;;;5076899;28;20207;-81
2021/12/13 13:06:05;;;;;;;0.90;0.90;;;9.90;99.90;;;;;;5076186;28;20183;-80
2021/12/13 13:08:34;;;;;;;4.00;1.00;;;9.60;99.90;;;;;;5057766;28;20178;-80
2021/12/13 13:13:46;;;;;;;1.03;0.93;;;9.70;99.90;;;;;;5077893;28;20174;-82
2021/12/13 13:16:12;;;;;;;0.90;0.70;;;9.60;99.90;;;;;;5077173;28;20203;-81
2021/12/13 13:18:40;;;;;;;0.93;0.63;;;9.60;99.90;;;;;;5077189;28;20195;-81
2021/12/13 13:21:07;;;;;;;1.20;0.70;;;9.60;99.90;;;;;;5063345;28;20194;-81
2021/12/13 13:23:45;;;;;;;5.63;0.80;;;9.60;99.90;;;;;;5076934;28;20533;-81
2021/12/13 13:26:14;;;;;;;0.77;0.60;;;9.50;99.90;;;;;;5057921;28;20241;-81
2021/12/13 13:28:41;;;;;;;0.90;0.70;;;9.50;99.90;;;;;;5072167;28;20231;-81
2021/12/13 13:31:19;;;;;;;1.33;0.60;;;9.50;99.90;;;;;;5058176;28;20226;-81
2021/12/13 13:34:00;;;;;;;0.80;0.60;;;9.50;99.90;;;;;;5076983;28;20159;-81
2021/12/13 13:36:35;;;;;;;0.83;0.70;;;9.50;99.90;;;;;;5076102;28;20543;-81
2021/12/13 13:39:12;;;;;;;2.43;0.50;;;9.40;99.90;;;;;;5076347;28;20220;-81